Time;durP1;ratioP1;P1;durP2;ratioP2;P2;SDS_P1;SDS_P2;PMS_P1;PMS_P2;Temp;Humidity;BMP_temperature;BMP_pressure;BME280_temperature;BME280_humidity;BME280_pressure;Samples;Min_cycle;Max_cycle;Signal;HPM_P1;HPM_P2
2023/05/03 00:00:07;;;;;;;0.20;0.20;;;18.80;81.30;;;;;;5033630;28;20032;-76
2023/05/03 00:02:34;;;;;;;0.60;0.40;;;19.30;49.20;;;;;;5033492;28;20056;-76
2023/05/03 00:05:00;;;;;;;0.50;0.25;;;;;;;;;;5032382;28;20029;-77
2023/05/03 00:07:26;;;;;;;0.82;0.32;;;19.10;81.80;;;;;;5033595;28;20033;-77
2023/05/03 00:09:51;;;;;;;0.73;0.50;;;18.90;81.90;;;;;;5033799;28;20033;-76
2023/05/03 00:12:17;;;;;;;0.22;0.20;;;19.30;76.40;;;;;;5033410;28;20026;-77
2023/05/03 00:14:43;;;;;;;0.40;0.40;;;;;;;;;;5033650;28;20025;-76
2023/05/03 00:17:09;;;;;;;1.05;0.47;;;;;;;;;;5033463;28;20488;-76
2023/05/03 00:19:36;;;;;;;0.20;0.20;;;;;;;;;;5033152;28;20221;-77
2023/05/03 00:22:02;;;;;;;1.30;0.73;;;19.10;58.60;;;;;;5033426;28;20434;-76
2023/05/03 00:24:28;;;;;;;0.40;0.40;;;19.10;56.50;;;;;;5033461;28;20018;-76
2023/05/03 00:26:54;;;;;;;0.80;0.43;;;18.90;57.60;;;;;;5033172;28;20476;-77
2023/05/03 00:29:21;;;;;;;0.47;0.40;;;;;;;;;;5033184;28;20465;-77
2023/05/03 00:31:47;;;;;;;0.35;0.32;;;19.20;82.40;;;;;;5033049;28;20040;-77
2023/05/03 00:34:14;;;;;;;0.57;0.30;;;;;;;;;;5032896;28;20017;-77
2023/05/03 00:36:40;;;;;;;0.52;0.35;;;19.30;82.10;;;;;;5033329;28;20456;-77
2023/05/03 00:39:06;;;;;;;0.40;0.20;;;;;;;;;;5032835;28;20057;-77
2023/05/03 00:41:33;;;;;;;0.35;0.28;;;;;;;;;;5032746;28;20105;-76
2023/05/03 00:43:59;;;;;;;0.52;0.32;;;19.10;58.10;;;;;;5033009;28;20457;-76
2023/05/03 00:46:25;;;;;;;0.28;0.22;;;19.00;68.10;;;;;;5033158;28;20021;-77
2023/05/03 00:48:51;;;;;;;1.52;0.47;;;;;;;;;;5032726;28;20084;-77
2023/05/03 00:51:19;;;;;;;0.60;0.30;;;18.80;81.80;;;;;;5032226;28;20071;-78
2023/05/03 00:53:45;;;;;;;0.47;0.38;;;18.90;82.00;;;;;;5032881;28;20047;-77
2023/05/03 00:56:16;;;;;;;0.98;0.30;;;18.80;49.10;;;;;;5032610;28;20527;-77
2023/05/03 00:58:41;;;;;;;0.63;0.30;;;19.10;82.00;;;;;;5032625;28;20503;-77
2023/05/03 01:01:07;;;;;;;0.50;0.30;;;19.00;81.50;;;;;;5032445;28;20059;-77
2023/05/03 01:03:36;;;;;;;0.20;0.20;;;18.70;72.50;;;;;;5032450;28;20044;-77
2023/05/03 01:06:31;;;;;;;0.50;0.30;;;18.70;82.00;;;;;;5032496;28;20024;-77
2023/05/03 01:09:36;;;;;;;0.30;0.20;;;18.70;49.10;;;;;;5032735;28;20112;-77
2023/05/03 01:12:10;;;;;;;0.75;0.30;;;18.10;81.80;;;;;;5024273;28;20041;-77
2023/05/03 01:15:01;;;;;;;0.20;0.20;;;18.70;45.50;;;;;;5032591;28;20843;-77
2023/05/03 01:17:37;;;;;;;0.60;0.25;;;18.60;58.50;;;;;;5032292;28;20048;-77
2023/05/03 01:20:10;;;;;;;0.52;0.32;;;18.50;82.00;;;;;;5032300;28;20029;-77
2023/05/03 01:22:49;;;;;;;0.45;0.35;;;18.80;82.10;;;;;;5032545;28;20505;-77
2023/05/03 01:25:15;;;;;;;0.40;0.22;;;18.90;63.00;;;;;;5032295;28;20029;-77
2023/05/03 01:27:41;;;;;;;0.30;0.30;;;18.20;54.10;;;;;;5032157;28;20035;-77
2023/05/03 01:30:09;;;;;;;0.30;0.20;;;18.80;81.40;;;;;;5032246;28;20028;-77
2023/05/03 01:32:54;;;;;;;1.40;0.30;;;18.60;45.60;;;;;;5032278;28;20043;-77
2023/05/03 01:35:28;;;;;;;0.50;0.38;;;18.70;61.40;;;;;;5032067;28;20496;-77
2023/05/03 01:37:56;;;;;;;0.20;0.20;;;18.60;65.10;;;;;;5032091;28;20025;-77
2023/05/03 01:40:24;;;;;;;1.15;0.30;;;18.20;82.30;;;;;;5032014;28;20087;-76
2023/05/03 01:42:51;;;;;;;1.75;0.20;;;18.50;49.40;;;;;;5031846;28;20077;-76
2023/05/03 01:45:17;;;;;;;0.75;0.35;;;18.50;48.20;;;;;;5031987;28;20021;-77
2023/05/03 01:47:43;;;;;;;0.22;0.20;;;;;;;;;;5032119;28;20369;-77
2023/05/03 01:50:09;;;;;;;1.02;0.25;;;18.30;51.00;;;;;;5031916;28;20029;-77
2023/05/03 01:52:35;;;;;;;0.68;0.30;;;18.60;75.60;;;;;;5031972;28;20040;-77
2023/05/03 01:55:01;;;;;;;0.90;0.20;;;18.40;82.50;;;;;;5032208;28;20033;-77
2023/05/03 01:57:27;;;;;;;0.20;0.20;;;18.20;82.10;;;;;;5032158;28;20026;-77
2023/05/03 01:59:54;;;;;;;0.50;0.30;;;;;;;;;;5032250;28;20021;-77
2023/05/03 02:02:21;;;;;;;0.90;0.50;;;18.50;82.40;;;;;;5032023;28;20500;-77
2023/05/03 02:04:47;;;;;;;2.38;0.20;;;18.10;81.90;;;;;;5034396;28;20388;-77
2023/05/03 02:07:13;;;;;;;1.02;0.22;;;18.40;58.70;;;;;;5036122;28;20040;-77
2023/05/03 02:09:39;;;;;;;0.40;0.40;;;18.30;82.20;;;;;;5036009;28;20025;-77
2023/05/03 02:12:05;;;;;;;1.17;0.40;;;18.50;82.50;;;;;;5035969;28;20380;-78
2023/05/03 02:14:31;;;;;;;0.60;0.20;;;18.50;81.80;;;;;;5035850;28;20132;-77
2023/05/03 02:16:59;;;;;;;0.52;0.25;;;;;;;;;;5035503;28;20020;-76
2023/05/03 02:19:25;;;;;;;1.88;0.40;;;18.10;77.30;;;;;;5035940;28;20399;-76
2023/05/03 02:21:51;;;;;;;0.57;0.30;;;18.20;64.90;;;;;;5035477;28;20425;-77
2023/05/03 02:24:18;;;;;;;1.10;0.50;;;17.80;82.10;;;;;;5035505;28;20113;-77
2023/05/03 02:26:44;;;;;;;1.25;0.30;;;18.40;82.50;;;;;;5035416;28;20026;-77
2023/05/03 02:29:10;;;;;;;0.38;0.20;;;18.30;82.60;;;;;;5035389;28;20041;-77
2023/05/03 02:31:36;;;;;;;0.93;0.40;;;;;;;;;;5035336;28;20100;-77
2023/05/03 02:34:01;;;;;;;0.45;0.30;;;18.40;82.60;;;;;;5035324;28;20025;-77
2023/05/03 02:36:27;;;;;;;1.33;0.40;;;;;;;;;;5035442;28;20040;-77
2023/05/03 02:38:53;;;;;;;0.73;0.30;;;;;;;;;;5035509;28;20048;-77
2023/05/03 02:41:20;;;;;;;2.47;0.45;;;18.30;82.70;;;;;;5035251;28;20036;-77
2023/05/03 02:43:45;;;;;;;0.55;0.30;;;18.40;82.70;;;;;;5034928;28;20056;-77
2023/05/03 02:46:11;;;;;;;1.30;0.22;;;18.20;82.50;;;;;;5035138;28;20029;-76
2023/05/03 02:48:37;;;;;;;2.15;0.30;;;;;;;;;;5035050;28;20025;-77
2023/05/03 02:51:03;;;;;;;0.57;0.30;;;;;;;;;;5034939;28;20508;-77
2023/05/03 02:53:29;;;;;;;0.45;0.30;;;;;;;;;;5034983;28;20030;-77
2023/05/03 02:55:55;;;;;;;0.68;0.32;;;;;;;;;;5034907;28;20105;-77
2023/05/03 02:58:21;;;;;;;0.50;0.30;;;;;;;;;;5034897;28;20065;-77
2023/05/03 03:00:47;;;;;;;0.65;0.32;;;;;;;;;;5034776;28;20067;-77
2023/05/03 03:03:13;;;;;;;1.45;0.70;;;;;;;;;;5034840;28;20034;-77
2023/05/03 03:05:39;;;;;;;1.83;0.40;;;17.90;82.50;;;;;;5035075;28;20044;-77
2023/05/03 03:08:06;;;;;;;1.17;0.30;;;;;;;;;;5034891;28;20033;-77
2023/05/03 03:10:32;;;;;;;0.43;0.20;;;18.30;83.10;;;;;;5034593;28;20041;-77
2023/05/03 03:12:58;;;;;;;0.85;0.30;;;18.10;83.00;;;;;;5034607;28;20036;-78
2023/05/03 03:15:24;;;;;;;1.73;0.30;;;17.70;82.40;;;;;;5034381;28;20376;-78
2023/05/03 03:17:50;;;;;;;1.02;0.32;;;18.00;82.30;;;;;;5035033;28;20025;-78
2023/05/03 03:20:17;;;;;;;1.02;0.28;;;;;;;;;;5041133;28;20035;-79
2023/05/03 03:22:44;;;;;;;0.32;0.30;;;;;;;;;;5034598;28;20064;-77
2023/05/03 03:25:10;;;;;;;1.33;0.50;;;17.90;82.20;;;;;;5034537;28;20108;-77
2023/05/03 03:27:36;;;;;;;0.40;0.40;;;;;;;;;;5034674;28;20025;-77
2023/05/03 03:30:03;;;;;;;0.43;0.20;;;;;;;;;;5034251;28;20065;-80
2023/05/03 03:32:29;;;;;;;2.22;0.40;;;18.00;82.60;;;;;;5034367;28;20034;-79
2023/05/03 03:34:55;;;;;;;0.80;0.30;;;18.00;69.40;;;;;;5034376;28;20087;-79
2023/05/03 03:37:22;;;;;;;0.43;0.30;;;;;;;;;;5034108;28;20427;-79
2023/05/03 03:39:48;;;;;;;2.67;0.30;;;;;;;;;;5033989;28;20108;-78
2023/05/03 03:42:15;;;;;;;0.82;0.50;;;;;;;;;;5033782;28;20057;-79
2023/05/03 03:44:41;;;;;;;0.22;0.20;;;;;;;;;;5033797;28;20030;-78
2023/05/03 03:47:07;;;;;;;1.70;0.57;;;;;;;;;;5033850;28;20415;-78
2023/05/03 03:49:32;;;;;;;0.32;0.20;;;;;;;;;;5033680;28;20022;-79
2023/05/03 03:51:59;;;;;;;4.13;0.30;;;;;;;;;;5033954;28;20029;-78
2023/05/03 03:54:25;;;;;;;1.13;0.25;;;;;;;;;;5033788;28;20025;-78
2023/05/03 03:56:51;;;;;;;0.93;0.30;;;;;;;;;;5033668;28;20065;-78
2023/05/03 03:59:17;;;;;;;0.98;0.65;;;;;;;;;;5033620;28;20025;-78
2023/05/03 04:01:43;;;;;;;2.38;0.70;;;;;;;;;;5033509;28;20527;-79
2023/05/03 04:04:09;;;;;;;1.08;0.60;;;;;;;;;;5033247;28;20048;-78
2023/05/03 04:06:35;;;;;;;0.60;0.30;;;;;;;;;;5033449;28;20029;-78
2023/05/03 04:09:01;;;;;;;0.77;0.32;;;17.60;49.50;;;;;;5033480;28;20084;-78
2023/05/03 04:11:27;;;;;;;1.15;0.57;;;;;;;;;;5033441;28;20032;-78
2023/05/03 04:13:53;;;;;;;0.95;0.28;;;;;;;;;;5033282;28;20535;-79
2023/05/03 04:16:19;;;;;;;1.05;0.38;;;;;;;;;;5033223;28;20132;-79
2023/05/03 04:18:45;;;;;;;0.60;0.55;;;;;;;;;;5033333;28;20076;-79
2023/05/03 04:21:11;;;;;;;0.65;0.30;;;;;;;;;;5033275;28;20033;-79
2023/05/03 04:23:37;;;;;;;0.63;0.40;;;;;;;;;;5033074;28;20447;-79
2023/05/03 04:26:03;;;;;;;1.00;0.35;;;;;;;;;;5032712;28;20025;-79
2023/05/03 04:28:29;;;;;;;0.50;0.30;;;;;;;;;;5032911;28;20132;-79
2023/05/03 04:30:57;;;;;;;1.33;0.43;;;;;;;;;;5033169;28;20400;-79
2023/05/03 04:33:23;;;;;;;1.08;0.32;;;;;;;;;;5032962;28;20131;-79
2023/05/03 04:35:52;;;;;;;1.50;0.32;;;17.50;49.30;;;;;;5033096;28;20025;-79
2023/05/03 04:38:18;;;;;;;0.68;0.40;;;17.10;82.30;;;;;;5032942;28;20063;-79
2023/05/03 04:40:45;;;;;;;1.85;0.30;;;17.60;82.50;;;;;;5033195;28;20040;-79
2023/05/03 04:43:11;;;;;;;1.20;0.35;;;;;;;;;;5032717;28;20061;-80
2023/05/03 04:45:38;;;;;;;1.80;0.28;;;;;;;;;;5033036;28;20022;-79
2023/05/03 04:48:04;;;;;;;1.92;0.38;;;17.20;82.60;;;;;;5032929;28;20029;-79
2023/05/03 04:50:32;;;;;;;0.65;0.43;;;17.50;82.70;;;;;;5032826;28;20029;-79
2023/05/03 04:52:59;;;;;;;1.25;0.28;;;17.50;82.90;;;;;;5032655;28;20030;-79
2023/05/03 04:55:25;;;;;;;2.22;0.55;;;;;;;;;;5032860;28;20040;-79
2023/05/03 04:57:51;;;;;;;0.43;0.28;;;17.60;82.90;;;;;;5032952;28;20340;-79
2023/05/03 05:00:17;;;;;;;1.27;0.28;;;17.50;82.90;;;;;;5032807;28;20021;-79
2023/05/03 05:02:43;;;;;;;0.40;0.30;;;17.30;82.80;;;;;;5032366;28;20555;-79
2023/05/03 05:05:10;;;;;;;0.52;0.30;;;16.80;79.80;;;;;;5032910;28;20100;-79
2023/05/03 05:07:36;;;;;;;0.28;0.20;;;17.20;82.70;;;;;;5032806;28;20112;-79
2023/05/03 05:10:02;;;;;;;0.73;0.35;;;17.40;82.60;;;;;;5032259;28;20540;-79
2023/05/03 05:12:28;;;;;;;0.70;0.40;;;17.10;82.40;;;;;;5032293;28;20038;-79
2023/05/03 05:14:54;;;;;;;2.95;0.73;;;17.30;82.30;;;;;;5032559;28;20521;-79
2023/05/03 05:17:21;;;;;;;1.75;0.30;;;;;;;;;;5032282;28;20032;-79
2023/05/03 05:19:47;;;;;;;0.65;0.40;;;;;;;;;;5032515;28;20400;-79
2023/05/03 05:22:13;;;;;;;0.80;0.30;;;;;;;;;;5032314;28;20033;-81
2023/05/03 05:24:39;;;;;;;0.77;0.45;;;17.50;82.40;;;;;;5032241;28;20044;-78
2023/05/03 05:27:05;;;;;;;0.98;0.20;;;;;;;;;;5032205;28;20030;-76
2023/05/03 05:29:31;;;;;;;0.60;0.22;;;17.30;82.10;;;;;;5032273;28;20029;-77
2023/05/03 05:31:58;;;;;;;0.20;0.20;;;;;;;;;;5032102;28;20044;-76
2023/05/03 05:34:24;;;;;;;0.43;0.30;;;17.50;82.80;;;;;;5031970;28;20029;-75
2023/05/03 05:36:51;;;;;;;0.30;0.30;;;17.40;82.60;;;;;;5032080;28;20105;-75
2023/05/03 05:39:17;;;;;;;0.75;0.35;;;;;;;;;;5031930;28;20062;-75
2023/05/03 05:41:43;;;;;;;0.20;0.20;;;;;;;;;;5031812;28;20125;-75
2023/05/03 05:44:09;;;;;;;1.23;0.35;;;;;;;;;;5031998;28;20121;-75
2023/05/03 05:46:35;;;;;;;1.10;0.25;;;;;;;;;;5032127;28;20049;-74
2023/05/03 05:49:01;;;;;;;2.83;0.60;;;;;;;;;;5031906;28;20392;-75
2023/05/03 13:12:02;;;;;;;2.42;1.35;;;21.70;76.80;;;;;;5069249;28;20402;-76
2023/05/03 13:14:28;;;;;;;4.38;0.95;;;21.80;76.20;;;;;;5069315;28;20023;-74
2023/05/03 13:16:54;;;;;;;3.15;1.27;;;;;;;;;;5069330;28;20103;-74
2023/05/03 13:19:20;;;;;;;4.38;0.90;;;21.70;74.80;;;;;;5069227;28;20027;-74
2023/05/03 13:21:47;;;;;;;3.90;1.30;;;22.00;74.20;;;;;;5067778;28;20028;-77
2023/05/03 13:24:13;;;;;;;2.13;1.02;;;;;;;;;;5069121;28;20021;-74
2023/05/03 13:26:39;;;;;;;1.58;0.60;;;;;;;;;;5069051;28;20025;-75
2023/05/03 13:29:05;;;;;;;0.82;0.60;;;;;;;;;;5069016;28;20048;-74
2023/05/03 13:31:31;;;;;;;4.32;0.95;;;;;;;;;;5068919;28;20040;-74
2023/05/03 13:33:57;;;;;;;3.20;0.95;;;;;;;;;;5068859;28;20017;-74
2023/05/03 13:36:23;;;;;;;1.40;0.60;;;;;;;;;;5068997;28;20029;-72
2023/05/03 13:38:50;;;;;;;2.88;0.90;;;22.80;74.50;;;;;;5069190;28;20024;-73
2023/05/03 13:41:16;;;;;;;1.95;0.95;;;22.50;73.90;;;;;;5069155;28;20056;-73
2023/05/03 13:43:43;;;;;;;3.17;1.17;;;;;;;;;;5069059;28;20016;-75
2023/05/03 13:46:09;;;;;;;1.27;0.85;;;;;;;;;;5068565;28;20024;-74
2023/05/03 13:48:35;;;;;;;3.05;0.75;;;22.50;73.60;;;;;;5068750;28;20025;-75
2023/05/03 13:51:12;;;;;;;3.33;0.95;;;22.50;73.80;;;;;;5068725;28;20036;-74
2023/05/03 13:53:39;;;;;;;4.03;1.13;;;22.60;42.80;;;;;;5068667;28;20059;-76
2023/05/03 13:56:05;;;;;;;2.28;0.90;;;22.70;73.70;;;;;;5068767;28;20040;-76
2023/05/03 13:58:33;;;;;;;4.80;0.90;;;22.80;73.30;;;;;;5068675;28;20037;-76
2023/05/03 14:00:59;;;;;;;0.68;0.60;;;22.50;73.20;;;;;;5068416;28;20033;-74
2023/05/03 14:03:25;;;;;;;4.20;1.25;;;23.10;72.70;;;;;;5068645;28;20021;-73
2023/05/03 14:05:52;;;;;;;2.20;0.93;;;;;;;;;;5068596;28;20025;-74
2023/05/03 14:08:18;;;;;;;1.50;0.68;;;23.40;73.20;;;;;;5068458;28;20083;-75
2023/05/03 14:10:44;;;;;;;2.60;0.98;;;23.10;73.00;;;;;;5068011;28;20056;-73
2023/05/03 14:13:10;;;;;;;2.42;0.60;;;23.10;72.60;;;;;;5067974;28;20017;-72
2023/05/03 14:15:39;;;;;;;2.83;0.93;;;23.30;72.10;;;;;;5068005;28;20482;-73
2023/05/03 14:18:07;;;;;;;3.75;1.02;;;23.00;47.70;;;;;;5067888;28;20025;-74
2023/05/03 14:20:33;;;;;;;5.20;1.20;;;23.10;40.70;;;;;;5067863;28;20028;-73
2023/05/03 14:22:59;;;;;;;1.52;0.93;;;;;;;;;;5056623;28;20021;-74
2023/05/03 14:25:26;;;;;;;1.75;0.80;;;23.20;42.40;;;;;;5054661;28;20060;-74
2023/05/03 14:27:52;;;;;;;4.45;0.90;;;23.20;72.40;;;;;;5054620;28;20021;-74
2023/05/03 14:30:18;;;;;;;3.33;1.00;;;23.40;71.60;;;;;;5054456;28;20376;-73
2023/05/03 14:32:44;;;;;;;2.55;0.63;;;;;;;;;;5054577;28;20013;-75
2023/05/03 14:35:10;;;;;;;1.95;0.77;;;23.70;52.10;;;;;;5054417;28;20051;-73
2023/05/03 14:37:36;;;;;;;2.17;0.70;;;23.80;71.90;;;;;;5054564;28;20017;-73
2023/05/03 14:40:04;;;;;;;3.60;0.90;;;23.30;56.50;;;;;;5054310;28;20032;-84
2023/05/03 14:42:30;;;;;;;3.45;1.50;;;23.30;51.80;;;;;;5054599;28;20082;-72
2023/05/03 14:44:56;;;;;;;3.28;1.05;;;23.40;71.50;;;;;;5054370;28;20356;-74
2023/05/03 14:47:22;;;;;;;2.38;1.23;;;23.30;71.50;;;;;;5054622;28;20032;-74
2023/05/03 14:49:49;;;;;;;1.77;0.80;;;23.30;71.20;;;;;;5054178;28;20074;-72
2023/05/03 14:52:15;;;;;;;3.15;1.08;;;;;;;;;;5054045;28;20040;-72
2023/05/03 14:54:41;;;;;;;7.43;1.15;;;;;;;;;;5054223;28;20021;-73
2023/05/03 14:57:07;;;;;;;2.75;0.77;;;;;;;;;;5054145;28;20028;-75
2023/05/03 15:53:47;;;;;;;1.33;0.80;;;;;;;;;;5040546;28;20305;-79
2023/05/03 15:56:13;;;;;;;6.60;1.05;;;;;;;;;;5052984;28;20021;-75
2023/05/03 15:58:39;;;;;;;3.80;1.13;;;23.30;71.00;;;;;;5052843;28;20024;-79
2023/05/03 16:01:05;;;;;;;2.47;0.90;;;23.60;71.90;;;;;;5053172;28;20075;-78
2023/05/03 16:03:31;;;;;;;1.98;0.65;;;;;;;;;;5052854;28;20029;-77
2023/05/03 16:05:57;;;;;;;2.83;1.00;;;23.50;72.20;;;;;;5052859;28;20021;-77
2023/05/03 16:08:23;;;;;;;2.58;0.77;;;23.40;71.80;;;;;;5052838;28;20573;-80
2023/05/03 16:10:49;;;;;;;1.60;0.70;;;23.40;72.00;;;;;;5052874;28;20029;-79
2023/05/03 16:13:14;;;;;;;2.25;1.27;;;22.80;71.80;;;;;;5053022;28;20510;-78
2023/05/03 16:15:41;;;;;;;1.42;0.70;;;;;;;;;;5052884;28;20031;-82
2023/05/03 16:18:07;;;;;;;3.97;0.85;;;;;;;;;;5052908;28;20480;-81
2023/05/03 16:20:33;;;;;;;3.10;1.15;;;23.10;71.40;;;;;;5052794;28;20082;-80
2023/05/03 16:23:00;;;;;;;2.97;1.15;;;;;;;;;;5052793;28;20029;-80
2023/05/03 16:25:27;;;;;;;3.95;1.25;;;22.70;71.70;;;;;;5052675;28;20029;-80
2023/05/03 16:27:53;;;;;;;2.13;0.82;;;23.30;64.80;;;;;;5052466;28;20024;-81
2023/05/03 16:30:19;;;;;;;1.42;0.73;;;23.00;66.20;;;;;;5052355;28;20029;-80
2023/05/03 16:32:46;;;;;;;2.15;0.80;;;23.00;71.70;;;;;;5052570;28;20033;-82
2023/05/03 16:35:13;;;;;;;2.72;1.00;;;;;;;;;;5052696;28;20547;-81
2023/05/03 16:37:40;;;;;;;5.32;0.90;;;22.60;72.10;;;;;;5052359;28;20028;-81
2023/05/03 16:40:10;;;;;;;3.22;0.90;;;22.50;53.10;;;;;;5052414;28;20507;-80
2023/05/03 16:42:40;;;;;;;3.45;1.00;;;22.80;72.20;;;;;;5052318;28;20040;-77
2023/05/03 16:45:07;;;;;;;;;;;22.60;42.20;;;;;;5052776;28;20387;-77
2023/05/03 16:47:34;;;;;;;2.75;0.73;;;;;;;;;;5052525;28;20267;-79
2023/05/03 16:50:00;;;;;;;2.28;0.65;;;22.50;72.80;;;;;;5052381;28;20368;-79
2023/05/03 16:52:27;;;;;;;2.40;0.80;;;22.50;72.40;;;;;;5052109;28;20032;-79
2023/05/03 16:54:53;;;;;;;2.50;0.90;;;22.20;72.80;;;;;;5052158;28;20041;-79
2023/05/03 16:57:19;;;;;;;1.67;1.15;;;;;;;;;;5052486;28;20467;-79
2023/05/03 16:59:45;;;;;;;0.90;0.50;;;22.10;73.20;;;;;;5052094;28;20021;-79
2023/05/03 17:02:11;;;;;;;1.80;0.50;;;21.70;72.80;;;;;;5052413;28;20043;-79
2023/05/03 17:04:38;;;;;;;5.55;0.70;;;22.20;74.10;;;;;;5053068;28;20371;-80
2023/05/03 17:07:04;;;;;;;1.10;0.73;;;21.80;73.40;;;;;;5052788;28;20021;-79
2023/05/03 17:09:31;;;;;;;2.88;0.90;;;;;;;;;;5053009;28;20364;-79
2023/05/03 17:11:57;;;;;;;2.00;0.80;;;21.90;74.20;;;;;;5053295;28;20100;-79
2023/05/03 17:14:24;;;;;;;2.97;0.95;;;;;;;;;;5053300;28;20017;-79
2023/05/03 17:16:53;;;;;;;5.20;0.65;;;21.70;74.10;;;;;;5052948;28;20473;-79
2023/05/03 17:19:21;;;;;;;1.27;0.60;;;;;;;;;;5052816;28;20475;-79
2023/05/03 17:21:47;;;;;;;2.22;0.50;;;21.60;73.30;;;;;;5052699;28;20108;-79
2023/05/03 17:24:14;;;;;;;1.55;0.65;;;21.90;74.20;;;;;;5052436;28;20043;-79
2023/05/03 17:26:40;;;;;;;1.80;0.70;;;21.70;73.90;;;;;;5051923;28;20379;-79
2023/05/03 17:29:06;;;;;;;1.65;0.50;;;21.70;74.20;;;;;;5051661;28;20017;-79
2023/05/03 17:31:32;;;;;;;3.63;0.75;;;21.60;74.20;;;;;;5051633;28;20033;-79
2023/05/03 17:33:58;;;;;;;2.20;0.50;;;21.80;74.20;;;;;;5051577;28;20021;-79
2023/05/03 17:36:24;;;;;;;1.35;0.50;;;21.30;74.20;;;;;;5051618;28;20025;-79
2023/05/03 17:38:50;;;;;;;1.33;0.47;;;21.60;74.90;;;;;;5051499;28;20020;-79
2023/05/03 17:41:15;;;;;;;3.22;1.58;;;21.50;57.10;;;;;;5051609;28;20071;-79
2023/05/03 17:43:42;;;;;;;1.98;0.82;;;;;;;;;;5051451;28;20036;-78
2023/05/03 17:46:10;;;;;;;3.00;0.70;;;21.40;43.60;;;;;;5051627;28;20056;-79
2023/05/03 17:48:47;;;;;;;3.33;0.80;;;21.30;74.20;;;;;;5052493;28;20025;-76
2023/05/03 17:51:13;;;;;;;3.22;0.80;;;;;;;;;;5056364;28;20176;-80
2023/05/03 17:53:40;;;;;;;1.02;0.60;;;21.40;43.50;;;;;;5051412;28;20048;-78
2023/05/03 17:56:12;;;;;;;1.63;0.50;;;21.60;75.20;;;;;;5051663;28;20444;-78
2023/05/03 17:58:38;;;;;;;1.00;0.70;;;21.50;75.40;;;;;;5055180;28;20071;-78
2023/05/03 18:01:06;;;;;;;2.95;0.50;;;;;;;;;;5055395;28;20017;-78
2023/05/03 18:03:33;;;;;;;1.50;0.63;;;21.50;75.20;;;;;;5055133;28;20044;-78
2023/05/03 18:05:59;;;;;;;1.40;0.80;;;;;;;;;;5055338;28;20086;-79
2023/05/03 18:08:25;;;;;;;1.20;0.55;;;;;;;;;;5055226;28;20021;-79
2023/05/03 18:10:51;;;;;;;2.58;1.13;;;20.80;74.10;;;;;;5054837;28;20044;-78
2023/05/03 18:13:17;;;;;;;1.42;0.50;;;21.10;74.20;;;;;;5055132;28;20096;-79
2023/05/03 18:15:43;;;;;;;0.80;0.55;;;;;;;;;;5054893;28;20168;-79
2023/05/03 18:18:09;;;;;;;0.68;0.50;;;;;;;;;;5054786;28;20017;-79
2023/05/03 18:20:35;;;;;;;2.90;0.47;;;;;;;;;;5055009;28;20025;-79
2023/05/03 18:23:02;;;;;;;1.95;0.55;;;20.80;75.30;;;;;;5055356;28;20052;-79
2023/05/03 18:25:28;;;;;;;4.05;0.50;;;21.00;75.30;;;;;;5054738;28;20031;-79
2023/05/03 18:27:56;;;;;;;2.70;0.70;;;;;;;;;;5054815;28;20017;-79
2023/05/03 18:30:24;;;;;;;0.95;0.40;;;21.20;70.30;;;;;;5053527;28;20423;-79
2023/05/03 18:32:50;;;;;;;3.00;0.43;;;21.00;75.60;;;;;;5054900;28;20071;-78
2023/05/03 18:35:17;;;;;;;5.30;0.63;;;21.20;75.50;;;;;;5054724;28;20029;-78
2023/05/03 18:37:42;;;;;;;1.00;0.52;;;20.70;75.30;;;;;;5053341;28;20036;-79
2023/05/03 18:40:09;;;;;;;1.08;0.57;;;;;;;;;;5053160;28;20025;-79
2023/05/03 18:42:34;;;;;;;1.50;0.57;;;21.00;75.50;;;;;;5054633;28;20029;-79
2023/05/03 18:45:00;;;;;;;1.77;0.50;;;20.80;75.30;;;;;;5054232;28;20021;-79
2023/05/03 18:47:26;;;;;;;2.78;0.43;;;21.10;75.00;;;;;;5054119;28;20025;-78
2023/05/03 18:49:51;;;;;;;2.15;0.68;;;21.10;74.50;;;;;;5054026;28;20032;-79
2023/05/03 18:52:19;;;;;;;3.22;0.57;;;21.00;46.10;;;;;;5054067;28;20029;-79
2023/05/03 18:54:44;;;;;;;4.15;0.68;;;21.10;75.60;;;;;;5054141;28;20041;-79
2023/05/03 18:57:10;;;;;;;0.93;0.40;;;20.90;56.60;;;;;;5054130;28;20025;-79
2023/05/03 18:59:36;;;;;;;1.92;0.50;;;20.60;75.30;;;;;;5053998;28;20033;-79
2023/05/03 19:02:02;;;;;;;1.83;0.50;;;20.90;75.40;;;;;;5054029;28;20025;-79
2023/05/03 19:04:28;;;;;;;2.72;0.60;;;21.00;65.80;;;;;;5053929;28;20040;-76
2023/05/03 19:06:54;;;;;;;2.28;0.77;;;20.90;74.80;;;;;;5053952;28;20027;-78
2023/05/03 19:09:20;;;;;;;1.88;0.60;;;20.90;74.90;;;;;;5053640;28;20104;-78
2023/05/03 19:11:47;;;;;;;1.20;0.43;;;20.70;74.70;;;;;;5053746;28;20033;-78
2023/05/03 19:14:13;;;;;;;2.17;0.68;;;20.80;74.70;;;;;;5052687;28;20094;-78
2023/05/03 19:16:40;;;;;;;1.35;0.70;;;;;;;;;;5054239;28;20049;-78
2023/05/03 19:19:07;;;;;;;1.27;0.50;;;;;;;;;;5053783;28;20032;-79
2023/05/03 19:21:36;;;;;;;2.45;0.93;;;;;;;;;;5053943;28;20108;-78
2023/05/03 19:24:02;;;;;;;2.45;0.60;;;20.50;75.00;;;;;;5053924;28;20029;-78
2023/05/03 19:26:28;;;;;;;2.67;0.50;;;20.30;74.80;;;;;;5053675;28;20029;-79
2023/05/03 19:28:54;;;;;;;2.08;0.73;;;20.50;74.90;;;;;;5053578;28;20075;-79
2023/05/03 19:31:20;;;;;;;3.45;0.70;;;20.70;61.70;;;;;;5052270;28;20033;-79
2023/05/03 19:33:46;;;;;;;1.25;0.70;;;;;;;;;;5053455;28;20035;-78
2023/05/03 19:36:14;;;;;;;4.10;0.60;;;20.80;46.80;;;;;;5053311;28;20029;-78
2023/05/03 19:38:39;;;;;;;1.63;0.93;;;20.50;62.50;;;;;;5053358;28;20064;-78
2023/05/03 19:41:11;;;;;;;2.72;0.52;;;;;;;;;;5053269;28;20489;-78
2023/05/03 19:43:37;;;;;;;2.30;0.77;;;20.70;75.30;;;;;;5053521;28;20017;-77
2023/05/03 19:46:04;;;;;;;2.03;0.80;;;20.70;74.80;;;;;;5053208;28;20030;-77
2023/05/03 19:48:31;;;;;;;1.90;0.70;;;20.50;75.20;;;;;;5053407;28;20021;-78
2023/05/03 19:51:01;;;;;;;2.58;0.73;;;20.50;43.10;;;;;;5053019;28;20068;-79
2023/05/03 19:53:27;;;;;;;1.25;0.70;;;20.60;75.60;;;;;;5052940;28;20493;-79
2023/05/03 19:56:00;;;;;;;2.35;0.90;;;20.50;75.60;;;;;;5052961;28;20033;-79
2023/05/03 19:58:26;;;;;;;1.40;0.88;;;20.50;75.50;;;;;;5053153;28;20017;-79
2023/05/03 20:00:53;;;;;;;2.40;0.95;;;20.50;75.60;;;;;;5052840;28;20047;-80
2023/05/03 20:03:23;;;;;;;0.80;0.47;;;20.60;54.40;;;;;;5053156;28;20405;-80
2023/05/03 20:05:49;;;;;;;3.25;0.82;;;;;;;;;;5052893;28;20029;-77
2023/05/03 20:08:16;;;;;;;2.58;0.93;;;20.60;71.70;;;;;;5053124;28;20434;-80
2023/05/03 20:10:42;;;;;;;1.52;0.77;;;;;;;;;;5052835;28;20033;-74
2023/05/03 20:13:08;;;;;;;2.88;0.80;;;20.50;75.80;;;;;;5051304;28;20151;-75
2023/05/03 20:15:35;;;;;;;1.73;0.70;;;20.50;75.50;;;;;;5052793;28;20017;-72
2023/05/03 20:18:00;;;;;;;3.08;0.85;;;20.00;75.70;;;;;;5052667;28;20027;-73
2023/05/03 20:20:27;;;;;;;1.23;0.50;;;20.30;75.80;;;;;;5050980;28;20021;-73
2023/05/03 20:22:52;;;;;;;1.85;0.73;;;20.50;75.80;;;;;;5052614;28;20029;-73
2023/05/03 20:25:20;;;;;;;0.90;0.75;;;20.30;75.60;;;;;;5052505;28;20017;-73
2023/05/03 20:27:46;;;;;;;2.47;0.75;;;20.20;75.70;;;;;;5052475;28;20032;-79
2023/05/03 20:30:13;;;;;;;1.65;0.70;;;;;;;;;;5052443;28;20491;-77
2023/05/03 20:32:38;;;;;;;1.67;0.70;;;20.00;49.90;;;;;;5052539;28;20021;-79
2023/05/03 20:35:07;;;;;;;0.82;0.63;;;20.40;75.80;;;;;;5052382;28;20328;-79
2023/05/03 20:37:33;;;;;;;0.85;0.57;;;20.10;75.70;;;;;;5052246;28;20025;-80
2023/05/03 20:39:59;;;;;;;0.88;0.60;;;;;;;;;;5052595;28;20036;-79
2023/05/03 20:42:26;;;;;;;0.98;0.70;;;;;;;;;;5052253;28;20094;-79
2023/05/03 20:44:52;;;;;;;1.60;0.70;;;20.20;51.10;;;;;;5052246;28;20112;-79
2023/05/03 20:47:18;;;;;;;0.70;0.50;;;;;;;;;;5052315;28;20025;-73
2023/05/03 20:49:44;;;;;;;1.48;0.60;;;;;;;;;;5052050;28;20056;-73
2023/05/03 20:52:10;;;;;;;1.50;0.50;;;20.10;69.80;;;;;;5052035;28;20044;-73
2023/05/03 20:54:37;;;;;;;1.35;0.65;;;20.10;44.30;;;;;;5051780;28;20041;-73
2023/05/03 20:57:03;;;;;;;2.65;1.00;;;20.00;59.00;;;;;;5052238;28;20059;-74
2023/05/03 20:59:29;;;;;;;1.33;0.60;;;;;;;;;;5052066;28;20053;-74
2023/05/03 21:01:55;;;;;;;1.38;0.55;;;;;;;;;;5051859;28;20479;-73
2023/05/03 21:04:23;;;;;;;2.45;0.50;;;20.10;44.70;;;;;;5051965;28;20079;-74
2023/05/03 21:06:48;;;;;;;0.80;0.60;;;20.40;76.20;;;;;;5051945;28;20029;-74
2023/05/03 21:09:15;;;;;;;3.50;0.82;;;19.70;75.70;;;;;;5051920;28;20048;-74
2023/05/03 21:11:41;;;;;;;1.83;0.77;;;20.10;76.30;;;;;;5051759;28;20033;-74
2023/05/03 21:14:07;;;;;;;1.90;0.80;;;;;;;;;;5050569;28;20028;-74
2023/05/03 21:16:33;;;;;;;1.33;0.60;;;19.70;74.80;;;;;;5051897;28;20052;-74
2023/05/03 21:18:58;;;;;;;1.25;0.68;;;20.20;76.20;;;;;;5051810;28;20475;-74
2023/05/03 21:21:24;;;;;;;0.85;0.60;;;20.20;76.20;;;;;;5051836;28;20406;-74
2023/05/03 21:23:50;;;;;;;3.30;0.60;;;20.10;76.20;;;;;;5051747;28;20029;-74
2023/05/03 21:26:15;;;;;;;1.27;0.60;;;19.80;64.60;;;;;;5051597;28;20029;-74
2023/05/03 21:28:41;;;;;;;1.38;0.55;;;;;;;;;;5051691;28;20061;-74
2023/05/03 21:31:08;;;;;;;1.27;0.75;;;;;;;;;;5051835;28;20117;-74
2023/05/03 21:33:33;;;;;;;0.88;0.47;;;20.20;75.30;;;;;;5055213;28;20082;-74
2023/05/03 21:35:59;;;;;;;1.15;0.68;;;;;;;;;;5055629;28;20029;-73